Latest Weather Observations for Weipa

IDQ60801

Issued at 4:35 pm EST Friday 25 July 2014 (issued every 30 minutes, with the page automatically refreshed every 10 minutes)

About weather observations | Map of weather stations | Latest weather observations for QLD | Other Formats
Station Details ID: 027045 Name: WEIPA AERO Lat: -12.68 Lon: 141.92 Height: 17.96 m
Data from the previous 72 hours. | See also: Recent months at Weipa
Date/Time
EST
Temp
°C
App
Temp
°C
Dew
Point
Rel
Hum
%
Delta-T
°C
Wind Press
QNH
hPa
Press
MSL
hPa
Rain
since 9 am
mm
Dir
 
Spd
km/h
Gust
km/h
Spd
kts
Gust
kts
25/04:30pm 30.4 28.8 16.6 43 8.7 E 20 30 11 16 1013.7 - 0.0
25/04:00pm 30.9 29.7 16.2 41 9.2 E 17 30 9 16 1013.7 - 0.0
25/03:30pm 30.4 28.5 15.1 39 9.4 ENE 19 30 10 16 1013.6 - 0.0
25/03:00pm 31.1 28.6 14.1 35 10.3 ENE 20 28 11 15 1013.6 1013.5 0.0
25/02:30pm 31.8 29.0 14.3 34 10.7 ENE 22 32 12 17 1014.0 - 0.0
25/02:00pm 30.1 27.9 15.0 40 9.2 E 20 30 11 16 1014.5 - 0.0
25/01:30pm 30.8 28.8 15.4 39 9.5 ENE 20 30 11 16 1015.0 - 0.0
25/01:00pm 29.1 27.2 15.8 44 8.2 E 20 30 11 16 1015.6 - 0.0
25/12:30pm 28.3 26.6 16.2 47 7.5 E 20 32 11 17 1016.0 - 0.0
25/12:00pm 29.1 27.4 16.3 46 8.0 E 20 32 11 17 1016.4 1016.3 0.0
25/11:30am 28.5 26.1 16.3 47 7.6 ENE 24 39 13 21 1016.6 - 0.0
25/11:00am 27.8 25.5 16.6 50 7.0 E 24 35 13 19 1016.7 - 0.0
25/10:30am 27.0 25.3 17.2 55 6.1 E 22 33 12 18 1016.9 - 0.0
25/10:00am 25.6 23.6 17.4 60 5.1 E 24 32 13 17 1017.2 - 0.0
25/09:30am 24.8 23.6 17.4 63 4.6 ESE 20 32 11 17 1017.3 - 0.0
25/09:00am 23.8 22.0 17.0 65 4.2 ESE 22 30 12 16 1017.1 1017.0 0.0
25/08:30am 22.7 20.8 16.6 68 3.7 ESE 22 32 12 17 1017.0 - 0.0
25/08:00am 21.2 20.9 16.4 74 2.9 ESE 13 17 7 9 1016.6 - 0.0
25/07:30am 20.1 20.2 16.4 79 2.2 SE 11 13 6 7 1016.5 - 0.0
25/07:00am 20.1 20.7 16.7 81 2.1 SE 9 13 5 7 1016.2 - 0.0
25/06:30am 20.2 21.2 16.9 81 2.0 SE 7 13 4 7 1015.9 - 0.0
25/06:00am 20.5 21.1 16.9 80 2.2 SSE 9 13 5 7 1015.6 1015.5 0.0
25/05:30am 20.6 21.3 17.0 80 2.2 SE 9 13 5 7 1015.2 - 0.0
25/05:00am 20.9 22.0 17.1 79 2.3 SE 7 15 4 8 1015.1 - 0.0
25/04:30am 21.0 22.1 17.2 79 2.3 SE 7 15 4 8 1015.1 - 0.0
25/04:00am 21.1 21.4 17.1 78 2.4 SE 11 19 6 10 1015.1 - 0.0
25/03:30am 20.9 21.2 17.1 79 2.3 SE 11 17 6 9 1015.0 - 0.0
25/03:00am 20.9 21.7 17.3 80 2.2 SE 9 13 5 7 1015.1 1015.0 0.0
25/02:30am 21.0 22.2 17.4 80 2.2 SE 7 13 4 7 1015.4 - 0.0
25/02:00am 21.2 22.0 17.3 78 2.4 SE 9 13 5 7 1015.5 - 0.0
25/01:30am 21.5 22.3 17.2 76 2.6 ESE 9 15 5 8 1015.5 - 0.0
25/01:00am 21.6 22.0 17.2 76 2.7 ESE 11 15 6 8 1015.8 - 0.0
25/12:30am 21.8 22.5 17.0 74 2.9 ESE 9 11 5 6 1015.9 - 0.0
25/12:00am 21.9 22.5 16.9 73 3.1 ESE 9 13 5 7 1015.9 1015.8 0.0
 
Date/Time
EST
Temp
°C
App
Temp
°C
Dew
Point
Rel
Hum
%
Delta-T
°C
Wind Press
QNH
hPa
Press
MSL
hPa
Rain
since 9 am
mm
Dir
 
Spd
km/h
Gust
km/h
Spd
kts
Gust
kts
24/11:30pm 22.1 23.1 16.9 72 3.2 ESE 7 11 4 6 1016.0 - 0.0
24/11:00pm 22.5 22.3 16.7 69 3.5 ESE 13 20 7 11 1016.0 - 0.0
24/10:30pm 22.9 22.7 16.6 67 3.8 ESE 13 19 7 10 1016.0 - 0.0
24/10:00pm 23.3 22.7 16.7 66 4.0 E 15 20 8 11 1016.1 - 0.0
24/09:30pm 23.7 23.1 16.7 65 4.3 E 15 19 8 10 1015.8 - 0.0
24/09:00pm 24.1 24.0 16.9 64 4.4 ESE 13 20 7 11 1015.5 1015.4 0.0
24/08:30pm 24.3 23.8 16.9 63 4.6 ESE 15 24 8 13 1015.1 - 0.0
24/08:00pm 24.5 23.2 16.8 62 4.7 E 19 26 10 14 1014.8 - 0.0
24/07:30pm 24.7 23.8 16.9 62 4.8 E 17 24 9 13 1014.4 - 0.0
24/07:00pm 24.8 23.6 17.0 62 4.8 ESE 19 28 10 15 1013.9 - 0.0
24/06:30pm 25.1 23.5 16.4 58 5.3 ESE 20 28 11 15 1013.5 - 0.0
24/06:00pm 25.6 24.1 16.3 56 5.7 ESE 19 26 10 14 1013.1 1013.0 0.0
24/05:30pm 26.5 24.2 16.6 54 6.1 ESE 24 37 13 20 1012.7 - 0.0
24/05:00pm 27.0 25.2 16.9 54 6.3 E 22 33 12 18 1012.5 - 0.0
24/04:30pm 27.5 24.4 16.5 51 6.8 E 28 41 15 22 1012.3 - 0.0
24/04:00pm 28.4 25.4 16.8 49 7.3 ESE 28 43 15 23 1012.0 - 0.0
24/03:30pm 29.3 26.9 16.3 45 8.1 E 24 32 13 17 1012.0 - 0.0
24/03:00pm 29.9 28.3 16.1 43 8.6 E 19 22 10 12 1012.0 1011.9 0.0
24/02:30pm 29.0 27.7 15.8 44 8.1 E 17 28 9 15 1012.3 - 0.0
24/02:00pm 28.7 27.0 15.7 45 8.0 E 19 30 10 16 1012.6 - 0.0
24/01:30pm 28.9 28.0 15.8 45 8.1 E 15 26 8 14 1013.2 - 0.0
24/01:00pm 29.3 27.8 15.2 42 8.6 E 17 30 9 16 1013.6 - 0.0
24/12:30pm 28.5 25.7 15.4 45 8.0 ESE 24 39 13 21 1014.0 - 0.0
24/12:00pm 28.7 25.8 15.1 43 8.3 E 24 33 13 18 1014.3 1014.2 0.0
24/11:30am 28.0 25.3 15.5 46 7.6 E 24 37 13 20 1014.8 - 0.0
24/11:00am 27.0 23.7 16.1 51 6.7 E 28 39 15 21 1015.2 - 0.0
24/10:30am 26.0 23.6 16.3 55 6.0 E 24 39 13 21 1015.5 - 0.0
24/10:00am 25.0 23.5 16.8 60 5.1 ESE 20 28 11 15 1015.8 - 0.0
24/09:30am 24.4 23.6 17.2 64 4.5 ESE 17 24 9 13 1016.0 - 0.0
24/09:00am 23.7 23.0 17.4 68 3.9 ESE 17 24 9 13 1015.8 1015.7 0.0
24/08:30am 22.4 22.5 17.5 74 3.0 ESE 13 19 7 10 1015.5 - 0.0
24/08:00am 20.5 22.0 17.5 83 1.8 SSE 6 9 3 5 1014.9 - 0.0
24/07:30am 19.0 20.9 17.6 92 0.9 SSE 4 6 2 3 1014.6 - 0.0
24/07:00am 18.1 19.4 17.2 94 0.5 S 6 6 3 3 1014.3 - 0.0
24/06:30am 18.0 20.0 17.0 94 0.6 SE 2 6 1 3 1014.1 - 0.0
24/06:00am 18.2 19.5 17.2 94 0.6 S 6 7 3 4 1013.9 1013.8 0.0
24/05:30am 18.4 19.6 17.3 93 0.7 S 7 9 4 5 1013.5 - 0.0
24/05:00am 18.5 20.3 17.3 93 0.7 S 4 7 2 4 1013.4 - 0.0
24/04:30am 18.2 19.8 16.9 92 0.8 S 4 6 2 3 1013.4 - 0.0
24/04:00am 17.8 19.8 16.1 90 1.0 CALM 0 2 0 1 1013.4 - 0.0
24/03:30am 18.2 20.3 16.2 88 1.2 CALM 0 6 0 3 1013.5 - 0.0
24/03:00am 18.5 19.8 16.1 86 1.4 SSE 4 6 2 3 1013.6 1013.5 0.0
24/02:30am 18.4 20.5 16.3 87 1.3 CALM 0 2 0 1 1013.9 - 0.0
24/02:00am 18.8 20.5 16.3 85 1.5 ESE 2 4 1 2 1014.0 - 0.0
24/01:30am 19.2 20.5 16.1 82 1.8 ESE 4 6 2 3 1014.3 - 0.0
24/01:00am 19.5 20.4 16.0 80 2.1 ESE 6 7 3 4 1014.4 - 0.0
24/12:30am 20.0 20.8 15.9 77 2.4 ESE 6 7 3 4 1014.4 - 0.0
24/12:00am 20.6 20.8 15.8 74 2.9 ESE 9 11 5 6 1014.3 1014.2 0.0
 
Date/Time
EST
Temp
°C
App
Temp
°C
Dew
Point
Rel
Hum
%
Delta-T
°C
Wind Press
QNH
hPa
Press
MSL
hPa
Rain
since 9 am
mm
Dir
 
Spd
km/h
Gust
km/h
Spd
kts
Gust
kts
23/11:30pm 21.1 20.6 15.8 71 3.2 E 13 19 7 10 1014.2 - 0.0
23/11:00pm 21.3 20.2 15.3 68 3.6 ESE 15 17 8 9 1014.1 - 0.0
23/10:30pm 21.7 20.7 14.6 64 4.2 ESE 13 17 7 9 1014.1 - 0.0
23/10:00pm 22.4 21.2 14.1 59 4.9 E 13 19 7 10 1013.9 - 0.0
23/09:30pm 22.8 21.9 13.7 56 5.3 E 11 19 6 10 1013.7 - 0.0
23/09:00pm 23.4 21.6 13.4 53 5.8 E 15 20 8 11 1013.4 1013.3 0.0
23/08:30pm 24.0 21.3 13.0 50 6.4 E 19 28 10 15 1013.0 - 0.0
23/08:00pm 24.5 22.2 13.0 48 6.7 E 17 26 9 14 1012.6 - 0.0
23/07:30pm 24.7 23.9 13.9 51 6.4 E 11 15 6 8 1012.3 - 0.0
23/07:00pm 25.5 24.8 14.3 50 6.7 E 11 15 6 8 1011.9 - 0.0
23/06:30pm 26.2 25.3 13.8 46 7.3 E 11 15 6 8 1011.5 - 0.0
23/06:00pm 27.4 27.1 13.3 41 8.3 E 7 11 4 6 1011.2 1011.1 0.0
23/05:30pm 28.4 26.7 12.3 37 9.4 E 13 19 7 10 1011.0 - 0.0
23/05:00pm 29.0 27.5 11.8 34 10.0 E 11 17 6 9 1010.7 - 0.0
23/04:30pm 29.5 27.6 11.8 33 10.3 ESE 13 19 7 10 1010.6 - 0.0
23/04:00pm 29.0 26.7 11.9 34 9.9 ESE 15 20 8 11 1010.6 - 0.0
23/03:30pm 29.4 27.8 12.7 35 9.8 E 13 20 7 11 1010.6 - 0.0
23/03:00pm 29.2 27.7 13.0 37 9.6 E 13 24 7 13 1010.8 1010.7 0.0
23/02:30pm 28.7 25.8 12.4 36 9.5 SE 19 26 10 14 1011.1 - 0.0
23/02:00pm 29.2 26.0 13.0 37 9.6 ESE 22 28 12 15 1011.4 - 0.0
23/01:30pm 29.5 26.5 12.4 35 10.0 SE 20 30 11 16 1011.9 - 0.0
23/01:00pm 29.0 26.0 12.1 35 9.8 E 19 32 10 17 1012.4 - 0.0
23/12:30pm 28.2 25.2 12.5 37 9.2 ESE 20 33 11 18 1013.0 - 0.0
23/12:00pm 27.4 24.3 13.5 42 8.2 E 22 33 12 18 1013.6 1013.5 0.0
23/11:30am 27.7 24.4 14.0 43 8.2 ESE 24 41 13 22 1014.1 - 0.0
23/11:00am 27.1 24.1 13.6 43 8.0 E 22 33 12 18 1014.7 - 0.0
23/10:30am 26.2 24.2 15.6 52 6.5 ESE 20 32 11 17 1015.1 - 0.0
23/10:00am 25.1 23.4 16.2 57 5.4 ESE 20 37 11 20 1015.4 - 0.0
23/09:30am 23.7 23.2 17.0 66 4.1 ESE 15 20 8 11 1015.7 - 0.0
23/09:00am 22.1 21.6 17.0 73 3.1 ESE 15 19 8 10 1015.9 1015.8 0.0
23/08:30am 20.3 20.7 17.2 82 1.9 SE 11 17 6 9 1016.0 - 0.0
23/08:00am 18.3 19.4 16.7 90 1.0 ESE 6 9 3 5 1015.9 - 0.0
23/07:30am 16.4 17.1 15.5 94 0.5 SE 6 7 3 4 1015.6 - 0.0
23/07:00am 15.8 16.4 15.3 97 0.3 SE 6 7 3 4 1015.3 - 0.0
23/06:30am 15.6 16.1 15.1 97 0.3 ESE 6 6 3 3 1015.3 - 0.0
23/06:00am 15.5 16.0 14.9 96 0.3 ESE 6 6 3 3 1014.9 1014.8 0.0
23/05:30am 15.6 16.5 15.1 97 0.3 ESE 4 6 2 3 1014.7 - 0.0
23/05:00am 15.4 16.5 14.7 96 0.4 ESE 2 4 1 2 1014.6 - 0.0
23/04:30am 15.5 16.7 14.9 96 0.3 SSE 2 4 1 2 1014.3 - 0.0
23/04:00am 15.9 17.6 15.1 95 0.5 CALM 0 2 0 1 1014.4 - 0.0
23/03:30am 16.3 18.1 15.4 94 0.5 CALM 0 0 0 0 1014.6 - 0.0
23/03:00am 16.3 16.9 15.3 94 0.6 ENE 6 7 3 4 1014.7 1014.6 0.0
23/02:30am 16.7 17.8 15.5 93 0.7 NE 4 6 2 3 1014.9 - 0.0
23/02:00am 18.2 19.5 16.1 87 1.2 E 4 6 2 3 1015.1 - 0.0
23/01:30am 18.8 19.5 16.1 84 1.6 ESE 7 9 4 5 1015.2 - 0.0
23/01:00am 19.9 19.1 16.2 79 2.2 ESE 15 22 8 12 1015.3 - 0.0
23/12:30am 19.4 19.2 15.6 78 2.2 E 11 19 6 10 1015.5 - 0.0
23/12:00am 19.8 19.8 15.3 75 2.7 E 9 15 5 8 1015.7 1015.6 0.0
 
Date/Time
EST
Temp
°C
App
Temp
°C
Dew
Point
Rel
Hum
%
Delta-T
°C
Wind Press
QNH
hPa
Press
MSL
hPa
Rain
since 9 am
mm
Dir
 
Spd
km/h
Gust
km/h
Spd
kts
Gust
kts
22/11:30pm 19.6 19.9 15.0 75 2.7 E 7 11 4 6 1015.5 - 0.0
22/11:00pm 19.7 19.9 14.7 73 2.9 SE 7 9 4 5 1015.5 - 0.0
22/10:30pm 20.6 20.0 14.6 68 3.5 ESE 11 17 6 9 1015.7 - 0.0
22/10:00pm 21.1 19.6 14.1 64 4.1 E 15 22 8 12 1015.7 - 0.0
22/09:30pm 21.4 20.3 13.2 59 4.7 ESE 11 17 6 9 1015.6 - 0.0
22/09:00pm 21.8 21.0 12.9 57 5.1 E 9 15 5 8 1015.4 1015.3 0.0
22/08:30pm 22.2 21.4 12.9 55 5.3 E 9 15 5 8 1015.2 - 0.0
22/08:00pm 22.8 22.5 13.2 54 5.5 E 7 11 4 6 1014.7 - 0.0
22/07:30pm 23.8 22.9 12.7 49 6.4 E 9 13 5 7 1014.4 - 0.0
22/07:00pm 24.6 23.7 12.5 46 7.0 E 9 15 5 8 1013.9 - 0.0
22/06:30pm 25.5 24.5 12.3 43 7.6 E 9 15 5 8 1013.4 - 0.0
22/06:00pm 26.7 25.6 12.1 40 8.4 E 9 13 5 7 1013.2 1013.1 0.0
22/05:30pm 27.9 25.8 11.1 35 9.6 E 13 20 7 11 1012.8 - 0.0
22/05:00pm 28.1 24.9 11.3 35 9.6 ESE 19 30 10 16 1012.8 - 0.0

Other Formats:

Comma delimited format used in spreadsheet applications
http://www.bom.gov.au/fwo/IDQ60801/IDQ60801.94170.axf

JavaScript Object Notation format (JSON) in row-major order
http://www.bom.gov.au/fwo/IDQ60801/IDQ60801.94170.json